METAR Data
IDs: Format: Raw Decoded Include TAF

Data at: 0816 UTC 16 Oct 2018

METAR for:KFWA (Fort Wayne Intl, IN, US)
Text:KFWA 160754Z 22005KT 10SM FEW250 00/M01 A3027 RMK AO2 SLP255 T00001011 $
Temperature: 0.0°C ( 32°F)
Dewpoint: -1.1°C ( 30°F) [RH = 92%]
Pressure (altimeter):30.27 inches Hg (1025.1 mb) [Sea level pressure: 1025.5 mb]
Winds:from the SW (220 degrees) at 6 MPH (5 knots; 2.6 m/s)
Visibility:10 or more sm (16+ km)
Ceiling:at least 12,000 feet AGL
Clouds: few clouds at 25000 feet AGL
QC Flag:SOME DATA ABOVE MAY BE INACCURATE!!!"$" is an indication the sensor requires maintenance.